createdAt,value
2018-10-17T00:00:19.210Z,14.97
2018-10-17T00:05:02.944Z,13.53
2018-10-17T00:09:46.776Z,14.37
2018-10-17T00:14:30.498Z,15.33
2018-10-17T00:19:14.272Z,16.03
2018-10-17T00:23:58.374Z,15.57
2018-10-17T00:28:42.039Z,16.00
2018-10-17T00:33:25.799Z,15.30
2018-10-17T00:38:09.473Z,14.73
2018-10-17T00:42:53.680Z,16.13
2018-10-17T00:47:37.379Z,16.47
2018-10-17T00:52:21.198Z,16.77
2018-10-17T00:57:05.006Z,15.57
2018-10-17T01:01:48.744Z,15.53
2018-10-17T01:06:33.415Z,16.83
2018-10-17T01:11:17.139Z,17.93
2018-10-17T01:16:00.942Z,17.33
2018-10-17T01:20:44.762Z,16.80
2018-10-17T01:25:28.513Z,17.10
2018-10-17T01:30:12.194Z,16.73
2018-10-17T01:34:56.144Z,17.10
2018-10-17T01:39:40.046Z,16.83
2018-10-17T01:44:23.835Z,18.00
2018-10-17T01:49:07.641Z,17.43
2018-10-17T01:53:51.310Z,16.80
2018-10-17T01:58:35.244Z,16.90
2018-10-17T02:03:18.883Z,16.37
2018-10-17T02:08:02.609Z,15.83
2018-10-17T02:12:46.347Z,16.67
2018-10-17T02:17:29.968Z,17.27
2018-10-17T02:22:13.655Z,16.30
2018-10-17T02:26:57.396Z,17.57
2018-10-17T02:31:41.045Z,16.57
2018-10-17T02:36:24.746Z,16.33
2018-10-17T02:41:08.505Z,18.03
2018-10-17T02:45:52.219Z,16.73
2018-10-17T02:50:35.916Z,16.60
2018-10-17T02:55:19.602Z,17.37
2018-10-17T03:00:03.578Z,16.43
2018-10-17T03:04:47.226Z,16.83
2018-10-17T03:09:30.892Z,16.90
2018-10-17T03:14:14.717Z,18.07
2018-10-17T03:18:58.449Z,17.33
2018-10-17T03:23:42.324Z,18.03
2018-10-17T03:28:26.146Z,16.97
2018-10-17T03:33:09.991Z,17.97
2018-10-17T03:37:53.640Z,16.67
2018-10-17T03:42:37.486Z,17.63
2018-10-17T03:47:21.426Z,16.97
2018-10-17T03:52:05.535Z,19.30
2018-10-17T03:56:49.274Z,17.60
2018-10-17T04:01:33.037Z,17.43
2018-10-17T04:06:16.840Z,15.77
2018-10-17T04:11:00.609Z,16.33
2018-10-17T04:15:44.394Z,16.57
2018-10-17T04:20:28.083Z,16.67
2018-10-17T04:25:12.159Z,18.77
2018-10-17T04:29:56.084Z,18.90
2018-10-17T04:34:40.284Z,18.33
2018-10-17T04:39:24.072Z,17.93
2018-10-17T04:44:08.834Z,18.80
2018-10-17T04:48:52.745Z,18.57
2018-10-17T04:53:36.822Z,18.50
2018-10-17T04:58:20.809Z,17.63
2018-10-17T05:03:05.016Z,18.47
2018-10-17T05:07:48.876Z,18.33
2018-10-17T05:12:32.752Z,18.23
2018-10-17T05:17:16.512Z,18.27
2018-10-17T05:22:00.226Z,17.93
2018-10-17T05:26:44.346Z,18.70
2018-10-17T05:31:28.134Z,17.87
2018-10-17T05:36:11.950Z,17.03
2018-10-17T05:40:55.854Z,17.93
2018-10-17T05:45:39.714Z,16.30
2018-10-17T05:50:23.470Z,15.13
2018-10-17T05:55:07.601Z,16.40
2018-10-17T05:59:51.231Z,17.43
2018-10-17T06:04:35.339Z,18.57
2018-10-17T06:09:19.169Z,17.70
2018-10-17T06:14:03.069Z,18.60
2018-10-17T06:18:46.777Z,19.70
2018-10-17T06:23:30.667Z,17.07
2018-10-17T06:28:14.715Z,18.77
2018-10-17T06:32:58.701Z,18.13
2018-10-17T06:37:42.625Z,19.00
2018-10-17T06:42:26.724Z,18.23
2018-10-17T06:47:10.674Z,18.23
2018-10-17T06:51:54.555Z,17.67
2018-10-17T06:56:38.365Z,16.83
2018-10-17T07:01:22.121Z,16.03
2018-10-17T07:06:05.833Z,16.90
2018-10-17T07:10:49.714Z,16.10
2018-10-17T07:15:33.710Z,17.50
2018-10-17T07:20:17.705Z,15.70
2018-10-17T07:25:01.457Z,16.53
2018-10-17T07:29:45.320Z,14.70
2018-10-17T07:34:29.300Z,15.13
2018-10-17T07:39:13.198Z,13.93
2018-10-17T07:43:56.901Z,14.87
2018-10-17T07:48:40.602Z,14.63
2018-10-17T07:53:24.567Z,13.20
2018-10-17T07:58:08.381Z,14.53
2018-10-17T08:02:52.066Z,13.87
2018-10-17T08:07:36.028Z,12.83
2018-10-17T08:12:19.910Z,12.03
2018-10-17T08:17:03.717Z,14.97
2018-10-17T08:21:47.463Z,15.50
2018-10-17T08:26:31.339Z,17.50
2018-10-17T08:31:15.147Z,15.60
2018-10-17T08:35:59.054Z,17.07
2018-10-17T08:40:43.068Z,17.33
2018-10-17T08:45:26.817Z,16.03
2018-10-17T08:50:10.701Z,15.20
2018-10-17T08:54:54.535Z,16.77
2018-10-17T08:59:38.371Z,15.67
2018-10-17T09:04:22.164Z,15.63
2018-10-17T09:09:10.223Z,15.70
2018-10-17T09:13:54.289Z,15.00
2018-10-17T09:18:38.362Z,15.57
2018-10-17T09:23:22.254Z,16.17
2018-10-17T09:28:06.525Z,15.97
2018-10-17T09:32:50.495Z,15.80
2018-10-17T09:37:34.298Z,15.53
2018-10-17T09:42:18.420Z,15.33
2018-10-17T09:47:02.121Z,15.87
2018-10-17T09:51:46.239Z,15.03
2018-10-17T09:56:30.020Z,16.93
2018-10-17T10:01:18.015Z,16.43
2018-10-17T10:06:02.118Z,15.17
2018-10-17T10:10:45.973Z,15.37
2018-10-17T10:15:30.022Z,15.20
2018-10-17T10:20:13.995Z,19.17
2018-10-17T10:24:58.057Z,15.87
2018-10-17T10:29:41.809Z,15.23
2018-10-17T10:34:25.703Z,14.77
2018-10-17T10:39:10.902Z,15.80
2018-10-17T10:43:54.807Z,13.50
2018-10-17T10:48:38.988Z,15.53
2018-10-17T10:53:22.923Z,14.07
2018-10-17T10:58:06.892Z,15.03
2018-10-17T11:02:50.643Z,14.53
2018-10-17T11:07:34.647Z,13.97
2018-10-17T11:12:18.603Z,14.37
2018-10-17T11:17:02.411Z,14.67
2018-10-17T11:21:46.432Z,14.80
2018-10-17T11:26:30.111Z,14.50
2018-10-17T11:31:13.929Z,14.43
2018-10-17T11:35:58.241Z,15.03
2018-10-17T11:40:42.617Z,13.90
2018-10-17T11:45:26.575Z,14.83
2018-10-17T11:50:11.288Z,14.73
2018-10-17T11:54:55.087Z,15.27
2018-10-17T11:59:39.282Z,14.27
2018-10-17T12:04:23.391Z,14.67
2018-10-17T12:09:08.410Z,14.87
2018-10-17T12:13:55.934Z,14.03
2018-10-17T12:18:39.788Z,15.33
2018-10-17T12:23:23.609Z,13.10
2018-10-17T12:28:07.725Z,13.53
2018-10-17T12:32:51.514Z,14.60
2018-10-17T12:37:36.515Z,14.63
2018-10-17T12:42:21.892Z,13.40
2018-10-17T12:47:06.178Z,13.60
2018-10-17T12:51:50.701Z,15.80
2018-10-17T12:56:34.637Z,12.57
2018-10-17T13:01:18.443Z,13.13
2018-10-17T13:06:02.250Z,14.17
2018-10-17T13:10:46.063Z,13.93
2018-10-17T13:15:29.791Z,15.33
2018-10-17T13:20:13.707Z,14.93
2018-10-17T13:24:57.497Z,15.63
2018-10-17T13:29:41.248Z,14.87
2018-10-17T13:34:25.283Z,15.07
2018-10-17T13:39:10.776Z,14.97
2018-10-17T13:43:54.527Z,14.90
2018-10-17T13:48:38.363Z,14.47
2018-10-17T13:53:22.244Z,15.40
2018-10-17T13:58:06.556Z,15.03
2018-10-17T14:02:50.305Z,14.13
2018-10-17T14:07:34.230Z,13.53
2018-10-17T14:12:18.214Z,11.50
2018-10-17T14:17:01.982Z,11.50
2018-10-17T14:21:45.759Z,12.50
2018-10-17T14:26:29.578Z,11.67
2018-10-17T14:31:13.383Z,16.57
2018-10-17T14:35:57.234Z,13.27
2018-10-17T14:40:40.998Z,12.70
2018-10-17T14:45:25.916Z,12.47
2018-10-17T14:50:09.846Z,13.23
2018-10-17T14:54:53.753Z,12.60
2018-10-17T14:59:37.515Z,12.50
2018-10-17T15:04:21.529Z,14.23
2018-10-17T15:09:07.803Z,14.30
2018-10-17T15:13:51.468Z,12.93
2018-10-17T15:18:35.386Z,13.03
2018-10-17T15:23:19.079Z,14.37
2018-10-17T15:28:02.894Z,14.33
2018-10-17T15:32:46.637Z,15.33
2018-10-17T15:37:30.842Z,16.73
2018-10-17T15:42:14.676Z,16.20
2018-10-17T15:46:58.716Z,16.13
2018-10-17T15:51:42.390Z,16.50
2018-10-17T15:56:26.232Z,16.77
2018-10-17T16:01:10.036Z,18.40
2018-10-17T16:05:53.821Z,17.83
2018-10-17T16:10:37.651Z,20.10
2018-10-17T16:15:21.508Z,20.40
2018-10-17T16:20:07.394Z,21.50
2018-10-17T16:24:51.102Z,21.27
2018-10-17T16:29:34.867Z,23.57
2018-10-17T16:34:18.779Z,25.30
2018-10-17T16:39:02.676Z,24.33
2018-10-17T16:43:46.488Z,25.77
2018-10-17T16:48:30.454Z,26.10
2018-10-17T16:53:14.429Z,26.20
2018-10-17T16:57:58.235Z,26.33
2018-10-17T17:02:41.958Z,27.13
2018-10-17T17:07:25.961Z,27.73
2018-10-17T17:12:09.894Z,28.40
2018-10-17T17:16:53.603Z,30.20
2018-10-17T17:21:37.366Z,33.60
2018-10-17T17:26:21.111Z,32.60
2018-10-17T17:31:04.821Z,32.77
2018-10-17T17:35:48.673Z,31.43
2018-10-17T17:40:32.353Z,32.93
2018-10-17T17:45:15.999Z,31.77
2018-10-17T17:49:59.709Z,45.37
2018-10-17T17:54:43.976Z,34.37
2018-10-17T17:59:28.126Z,31.50
2018-10-17T18:04:12.243Z,28.23
2018-10-17T18:08:56.430Z,29.07
2018-10-17T18:13:40.607Z,29.50
2018-10-17T18:18:24.611Z,27.63
2018-10-17T18:23:08.803Z,27.37
2018-10-17T18:27:53.580Z,26.07
2018-10-17T18:32:37.684Z,24.67
2018-10-17T18:37:21.747Z,24.90
2018-10-17T18:42:06.089Z,24.50
2018-10-17T18:46:51.032Z,26.03
2018-10-17T18:51:34.976Z,25.20
2018-10-17T18:56:19.003Z,26.87
2018-10-17T19:01:02.820Z,25.43
2018-10-17T19:05:46.656Z,25.50
2018-10-17T19:10:30.803Z,26.90
2018-10-17T19:15:15.094Z,28.07
2018-10-17T19:19:58.952Z,28.70
2018-10-17T19:24:42.840Z,27.30
2018-10-17T19:29:26.583Z,27.23
2018-10-17T19:34:10.262Z,32.60
2018-10-17T19:38:54.133Z,33.13
2018-10-17T19:43:37.857Z,34.57
2018-10-17T19:48:21.722Z,38.67
2018-10-17T19:53:05.570Z,37.33
2018-10-17T19:57:49.350Z,38.43
2018-10-17T20:02:33.076Z,41.13
2018-10-17T20:07:16.900Z,40.43
2018-10-17T20:12:00.758Z,41.87
2018-10-17T20:16:44.532Z,41.00
2018-10-17T20:21:28.316Z,41.77
2018-10-17T20:26:12.414Z,42.27
2018-10-17T20:30:56.337Z,39.70
2018-10-17T20:35:40.247Z,37.93
2018-10-17T20:40:23.998Z,35.20
2018-10-17T20:45:08.017Z,32.50
2018-10-17T20:49:51.822Z,29.87
2018-10-17T20:54:35.624Z,27.70
2018-10-17T20:59:19.385Z,27.63
2018-10-17T21:04:03.083Z,28.77
2018-10-17T21:08:46.818Z,28.03
2018-10-17T21:13:30.622Z,28.33
2018-10-17T21:18:14.473Z,27.53
2018-10-17T21:22:58.243Z,29.83
2018-10-17T21:27:41.934Z,28.57
2018-10-17T21:32:25.751Z,25.60
2018-10-17T21:37:09.463Z,28.23
2018-10-17T21:41:53.259Z,27.83
2018-10-17T21:46:37.121Z,28.50
2018-10-17T21:51:20.791Z,28.00
2018-10-17T21:56:04.779Z,29.43
2018-10-17T22:00:48.584Z,28.50
2018-10-17T22:05:32.279Z,28.73
2018-10-17T22:10:16.193Z,30.00
2018-10-17T22:15:00.882Z,29.30
2018-10-17T22:19:44.826Z,30.40
2018-10-17T22:24:28.645Z,31.97
2018-10-17T22:29:12.401Z,30.43
2018-10-17T22:33:56.235Z,29.60
2018-10-17T22:38:40.019Z,30.20
2018-10-17T22:43:23.779Z,31.50
2018-10-17T22:48:07.537Z,30.53
2018-10-17T22:52:51.318Z,32.00
2018-10-17T22:57:35.363Z,33.23
2018-10-17T23:02:19.165Z,32.07
2018-10-17T23:07:02.863Z,30.30
2018-10-17T23:11:46.587Z,33.77
2018-10-17T23:16:30.518Z,34.07
2018-10-17T23:21:14.361Z,33.53
2018-10-17T23:25:58.115Z,34.43
2018-10-17T23:30:41.895Z,37.23
2018-10-17T23:35:25.795Z,34.77
2018-10-17T23:40:09.939Z,34.50
2018-10-17T23:44:54.119Z,34.63
2018-10-17T23:49:37.895Z,36.60
2018-10-17T23:54:21.743Z,35.30
2018-10-17T23:59:05.620Z,35.17
